createdAt,value
2022-11-22T00:01:15.207Z,6.71
2022-11-22T00:04:40.399Z,6.67
2022-11-22T00:08:05.580Z,6.59
2022-11-22T00:11:30.807Z,6.6
2022-11-22T00:14:57.075Z,6.64
2022-11-22T00:18:21.152Z,6.65
2022-11-22T00:21:46.333Z,6.59
2022-11-22T00:25:11.518Z,6.49
2022-11-22T00:28:36.757Z,6.43
2022-11-22T00:32:01.915Z,6.4
2022-11-22T00:35:27.094Z,6.43
2022-11-22T00:38:52.295Z,6.48
2022-11-22T00:42:17.487Z,6.54
2022-11-22T00:45:42.706Z,6.6
2022-11-22T00:49:07.854Z,6.64
2022-11-22T00:52:33.049Z,6.65
2022-11-22T00:55:58.236Z,6.64
2022-11-22T00:59:23.433Z,6.66
2022-11-22T01:02:48.653Z,6.68
2022-11-22T01:06:15.493Z,6.7
2022-11-22T01:09:40.685Z,6.69
2022-11-22T01:13:05.861Z,6.65
2022-11-22T01:16:31.058Z,6.63
2022-11-22T01:19:56.272Z,6.61
2022-11-22T01:23:21.436Z,6.61
2022-11-22T01:26:46.653Z,6.59
2022-11-22T01:30:11.812Z,6.56
2022-11-22T01:33:37.005Z,6.49
2022-11-22T01:37:02.231Z,6.43
2022-11-22T01:40:27.388Z,6.42
2022-11-22T01:43:52.574Z,6.45
2022-11-22T01:47:17.764Z,6.5
2022-11-22T01:50:42.955Z,6.52
2022-11-22T01:54:08.156Z,6.55
2022-11-22T01:57:33.325Z,6.53
2022-11-22T02:00:58.542Z,6.54
2022-11-22T02:04:23.700Z,6.55
2022-11-22T02:07:48.974Z,6.55
2022-11-22T02:11:14.117Z,6.54
2022-11-22T02:14:39.273Z,6.57
2022-11-22T02:18:04.468Z,6.59
2022-11-22T02:21:29.656Z,6.58
2022-11-22T02:24:54.831Z,6.54
2022-11-22T02:28:20.053Z,6.54
2022-11-22T02:31:45.216Z,6.54
2022-11-22T02:35:10.410Z,6.5
2022-11-22T02:38:35.604Z,6.44
2022-11-22T02:42:00.800Z,6.42
2022-11-22T02:45:26.002Z,6.4
2022-11-22T02:48:51.175Z,6.38
2022-11-22T02:52:16.362Z,6.39
2022-11-22T02:55:41.551Z,6.39
2022-11-22T02:59:06.729Z,6.36
2022-11-22T03:02:31.950Z,6.35
2022-11-22T03:05:57.110Z,6.36
2022-11-22T03:09:22.313Z,6.39
2022-11-22T03:13:04.485Z,6.41
2022-11-22T03:16:29.688Z,6.45
2022-11-22T03:19:54.906Z,6.5
2022-11-22T03:23:20.074Z,6.53
2022-11-22T03:26:45.270Z,6.54
2022-11-22T03:30:10.469Z,6.48
2022-11-22T03:33:35.660Z,6.42
2022-11-22T03:37:00.863Z,6.4
2022-11-22T03:40:26.040Z,6.37
2022-11-22T03:43:51.269Z,6.36
2022-11-22T03:47:16.455Z,6.35
2022-11-22T03:50:41.645Z,6.27
2022-11-22T03:54:06.855Z,6.15
2022-11-22T03:57:32.016Z,6.14
2022-11-22T04:00:57.209Z,6.2
2022-11-22T04:04:22.381Z,6.25
2022-11-22T04:07:47.610Z,6.33
2022-11-22T04:11:12.816Z,6.39
2022-11-22T04:14:37.975Z,6.41
2022-11-22T04:18:03.182Z,6.45
2022-11-22T04:21:28.364Z,6.46
2022-11-22T04:24:53.550Z,6.49
2022-11-22T04:28:18.765Z,6.54
2022-11-22T04:31:43.951Z,6.59
2022-11-22T04:35:09.159Z,6.65
2022-11-22T04:38:34.350Z,6.66
2022-11-22T04:42:00.895Z,6.7
2022-11-22T04:45:27.361Z,6.73
2022-11-22T04:49:17.421Z,6.75
2022-11-22T04:52:42.692Z,6.7
2022-11-22T04:56:07.930Z,6.67
2022-11-22T04:59:33.146Z,6.69
2022-11-22T05:02:58.422Z,6.71
2022-11-22T05:06:23.628Z,6.73
2022-11-22T05:09:48.810Z,6.74
2022-11-22T05:13:14.017Z,6.73
2022-11-22T05:16:39.232Z,6.75
2022-11-22T05:20:04.486Z,6.75
2022-11-22T05:23:29.730Z,6.71
2022-11-22T05:26:54.927Z,6.74
2022-11-22T05:30:20.131Z,6.77
2022-11-22T05:33:45.344Z,6.8
2022-11-22T05:37:10.625Z,6.82
2022-11-22T05:40:35.821Z,6.83
2022-11-22T05:44:01.068Z,6.86
2022-11-22T05:47:26.299Z,6.88
2022-11-22T05:50:51.554Z,6.91
2022-11-22T05:54:16.793Z,6.92
2022-11-22T05:57:41.994Z,6.88
2022-11-22T06:01:07.239Z,6.88
2022-11-22T06:04:32.485Z,6.92
2022-11-22T06:07:57.734Z,6.96
2022-11-22T06:11:22.981Z,7
2022-11-22T06:14:48.156Z,7.01
2022-11-22T06:18:13.396Z,7.04
2022-11-22T06:21:38.589Z,7.09
2022-11-22T06:25:03.796Z,7.15
2022-11-22T06:28:29.088Z,7.21
2022-11-22T06:31:55.214Z,7.26
2022-11-22T06:35:19.445Z,7.29
2022-11-22T06:38:44.715Z,7.29
2022-11-22T06:42:09.975Z,7.27
2022-11-22T06:45:35.225Z,7.23
2022-11-22T06:49:00.445Z,7.19
2022-11-22T06:52:25.677Z,7.15
2022-11-22T06:55:52.624Z,7.07
2022-11-22T06:59:16.215Z,7.06
2022-11-22T07:02:41.494Z,7.12
2022-11-22T07:06:06.703Z,7.17
2022-11-22T07:09:32.387Z,7.18
2022-11-22T07:12:57.128Z,7.2
2022-11-22T07:16:22.456Z,7.24
2022-11-22T07:19:47.711Z,7.27
2022-11-22T07:23:12.965Z,7.33
2022-11-22T07:26:38.156Z,7.25
2022-11-22T07:30:03.350Z,7.25
2022-11-22T07:33:28.571Z,7.22
2022-11-22T07:36:58.720Z,7.19
2022-11-22T07:40:18.986Z,7.21
2022-11-22T07:43:44.200Z,7.21
2022-11-22T07:47:09.411Z,7.21
2022-11-22T07:50:34.620Z,7.2
2022-11-22T07:54:01.257Z,7.2
2022-11-22T07:57:25.854Z,7.2
2022-11-22T08:00:51.094Z,7.18
2022-11-22T08:04:16.297Z,7.21
2022-11-22T08:07:41.600Z,7.31
2022-11-22T08:11:06.856Z,7.36
2022-11-22T08:14:31.940Z,7.39
2022-11-22T08:17:57.181Z,7.41
2022-11-22T08:21:22.405Z,7.45
2022-11-22T08:24:47.614Z,7.47
2022-11-22T08:28:12.938Z,7.5
2022-11-22T08:31:38.039Z,7.54
2022-11-22T08:35:03.248Z,7.56
2022-11-22T08:38:28.451Z,7.51
2022-11-22T08:41:53.672Z,7.49
2022-11-22T08:45:19.001Z,7.51
2022-11-22T08:48:44.119Z,7.51
2022-11-22T08:52:09.317Z,7.49
2022-11-22T08:55:34.553Z,7.49
2022-11-22T08:58:59.859Z,7.53
2022-11-22T09:02:25.115Z,7.51
2022-11-22T09:09:36.239Z,7.53
2022-11-22T09:12:40.657Z,7.54
2022-11-22T09:16:05.865Z,7.56
2022-11-22T09:19:31.402Z,7.59
2022-11-22T09:22:56.301Z,7.63
2022-11-22T09:26:21.508Z,7.68
2022-11-22T09:29:46.704Z,7.69
2022-11-22T09:33:11.916Z,7.72
2022-11-22T09:36:37.284Z,7.74
2022-11-22T09:40:02.369Z,7.78
2022-11-22T09:43:27.586Z,7.82
2022-11-22T09:46:52.807Z,7.88
2022-11-22T09:50:18.001Z,7.93
2022-11-22T09:53:43.355Z,7.95
2022-11-22T09:57:08.453Z,8.03
2022-11-22T10:00:33.660Z,8.14
2022-11-22T10:03:58.876Z,8.2
2022-11-22T10:07:24.136Z,8.22
2022-11-22T10:10:49.443Z,8.2
2022-11-22T10:14:14.526Z,8.23
2022-11-22T10:17:39.759Z,8.24
2022-11-22T10:21:04.966Z,8.27
2022-11-22T10:24:30.178Z,8.31
2022-11-22T10:28:00.326Z,8.36
2022-11-22T10:31:20.639Z,8.41
2022-11-22T10:34:45.817Z,8.45
2022-11-22T10:38:11.033Z,8.47
2022-11-22T10:41:36.233Z,8.39
2022-11-22T10:45:01.558Z,8.32
2022-11-22T10:48:26.648Z,8.31
2022-11-22T10:51:51.849Z,8.39
2022-11-22T10:55:17.072Z,8.44
2022-11-22T10:58:42.293Z,8.48
2022-11-22T11:02:07.537Z,8.48
2022-11-22T11:05:32.712Z,8.47
2022-11-22T11:09:55.396Z,8.45
2022-11-22T11:12:23.136Z,8.47
2022-11-22T11:15:52.791Z,8.48
2022-11-22T11:19:13.687Z,8.4
2022-11-22T11:23:06.887Z,8.35
2022-11-22T11:26:04.021Z,8.33
2022-11-22T11:29:32.103Z,8.37
2022-11-22T11:32:54.440Z,8.38
2022-11-22T11:36:19.813Z,8.4
2022-11-22T11:39:44.958Z,8.42
2022-11-22T11:43:10.134Z,8.43
2022-11-22T11:46:35.416Z,8.4
2022-11-22T11:50:00.638Z,8.39
2022-11-22T11:53:25.989Z,8.3
2022-11-22T11:56:51.096Z,8.29
2022-11-22T12:00:16.297Z,8.29
2022-11-22T12:03:41.578Z,8.32
2022-11-22T12:07:06.829Z,8.29
2022-11-22T12:10:32.135Z,8.22
2022-11-22T12:14:18.824Z,8.1
2022-11-22T12:17:22.492Z,8.06
2022-11-22T12:20:47.702Z,8.05
2022-11-22T12:24:41.218Z,8.03
2022-11-22T12:27:38.280Z,8.02
2022-11-22T12:31:03.388Z,7.99
2022-11-22T12:34:28.909Z,8
2022-11-22T12:37:53.833Z,8.12
2022-11-22T12:41:19.071Z,8.18
2022-11-22T12:44:44.446Z,8.2
2022-11-22T12:48:09.541Z,8.21
2022-11-22T12:51:34.766Z,8.19
2022-11-22T12:54:59.958Z,8.17
2022-11-22T12:58:25.174Z,8.16
2022-11-22T13:01:50.652Z,8.15
2022-11-22T13:05:15.681Z,8.18
2022-11-22T13:08:40.934Z,8.25
2022-11-22T13:12:06.199Z,8.28
2022-11-22T13:15:31.451Z,8.29
2022-11-22T13:18:56.781Z,8.26
2022-11-22T13:22:21.950Z,8.18
2022-11-22T13:25:47.197Z,8.14
2022-11-22T13:29:12.450Z,8.13
2022-11-22T13:32:37.745Z,8.14
2022-11-22T13:36:03.103Z,8.12
2022-11-22T13:39:28.218Z,8.13
2022-11-22T13:42:53.457Z,8.14
2022-11-22T13:46:18.736Z,8.15
2022-11-22T13:49:48.507Z,8.2
2022-11-22T13:53:09.333Z,8.28
2022-11-22T13:56:34.451Z,8.29
2022-11-22T13:59:59.684Z,8.28
2022-11-22T14:03:24.914Z,8.24
2022-11-22T14:06:50.150Z,8.16
2022-11-22T14:10:15.395Z,8.12
2022-11-22T14:13:40.639Z,8.12
2022-11-22T14:17:05.911Z,8.11
2022-11-22T14:20:31.160Z,8.12
2022-11-22T14:23:56.422Z,8.06
2022-11-22T14:27:21.804Z,8.04
2022-11-22T14:30:46.985Z,8.02
2022-11-22T15:03:37.602Z,5.49
2022-11-22T15:09:07.747Z,6.4
2022-11-22T15:10:28.055Z,6.61
2022-11-22T15:13:53.389Z,6.83
2022-11-22T15:58:21.859Z,8.1
2022-11-22T16:01:47.510Z,8.1
2022-11-22T16:06:04.765Z,8.09
2022-11-22T16:08:37.869Z,8.12
2022-11-22T16:12:03.241Z,8.16
2022-11-22T16:15:28.306Z,8.15
2022-11-22T16:18:53.523Z,8.16
2022-11-22T16:22:18.741Z,8.15
2022-11-22T16:25:43.972Z,8.16
2022-11-22T16:29:09.317Z,8.16
2022-11-22T16:32:34.407Z,8.14
2022-11-22T16:35:59.694Z,8.16
2022-11-22T16:39:24.904Z,8.17
2022-11-22T16:42:50.136Z,8.2
2022-11-22T16:46:15.479Z,8.22
2022-11-22T16:49:40.568Z,8.24
2022-11-22T16:53:05.772Z,8.26
2022-11-22T16:56:30.983Z,8.27
2022-11-22T16:59:56.482Z,8.27
2022-11-22T17:03:21.596Z,8.26
2022-11-22T17:06:46.778Z,8.24
2022-11-22T17:10:11.993Z,8.2
2022-11-22T17:13:37.228Z,8.18
2022-11-22T17:17:03.287Z,8.13
2022-11-22T17:20:28.848Z,8.13
2022-11-22T17:23:53.923Z,8.16
2022-11-22T17:27:19.131Z,8.14
2022-11-22T17:30:44.335Z,8.1
2022-11-22T17:34:09.549Z,8.07
2022-11-22T17:37:34.885Z,8.07
2022-11-22T17:41:00.107Z,8.09
2022-11-22T17:44:25.475Z,8.11
2022-11-22T17:47:50.715Z,8.13
2022-11-22T17:51:15.939Z,8.14
2022-11-22T17:54:41.283Z,8.1
2022-11-22T17:58:06.411Z,8.08
2022-11-22T18:01:31.620Z,8.06
2022-11-22T18:04:56.821Z,8.11
2022-11-22T18:08:22.084Z,8.11
2022-11-22T18:11:47.447Z,8.09
2022-11-22T18:15:12.576Z,8.04
2022-11-22T18:18:56.085Z,8
2022-11-22T18:22:03.016Z,8
2022-11-22T18:25:28.261Z,8.02
2022-11-22T18:29:17.601Z,8.04
2022-11-22T18:32:19.559Z,8.05
2022-11-22T18:35:55.832Z,8.03
2022-11-22T18:39:10.482Z,7.96
2022-11-22T18:42:35.714Z,7.92
2022-11-22T18:46:01.087Z,7.93
2022-11-22T18:49:26.259Z,7.94
2022-11-22T18:52:51.498Z,7.96
2022-11-22T18:56:16.711Z,7.98
2022-11-22T18:59:41.915Z,8.02
2022-11-22T19:03:07.195Z,8.06
2022-11-22T19:06:32.429Z,8.04
2022-11-22T19:09:57.642Z,8.06
2022-11-22T19:13:22.847Z,8.1
2022-11-22T19:16:48.049Z,8.05
2022-11-22T19:20:32.374Z,7.96
2022-11-22T19:23:38.619Z,7.86
2022-11-22T19:27:03.846Z,7.85
2022-11-22T19:30:29.053Z,7.84
2022-11-22T19:33:54.314Z,7.82
2022-11-22T19:37:19.710Z,7.79
2022-11-22T19:40:44.839Z,7.71
2022-11-22T19:44:10.111Z,7.61
2022-11-22T19:47:35.390Z,7.59
2022-11-22T19:51:00.696Z,7.59
2022-11-22T19:54:26.212Z,7.61
2022-11-22T19:57:51.353Z,7.65
2022-11-22T20:01:16.743Z,7.67
2022-11-22T20:04:41.887Z,7.69
2022-11-22T20:08:07.198Z,7.69
2022-11-22T20:11:32.604Z,7.66
2022-11-22T20:14:57.683Z,7.65
2022-11-22T20:18:23.084Z,7.66
2022-11-22T20:21:48.333Z,7.7
2022-11-22T20:25:21.518Z,7.72
2022-11-22T20:28:46.870Z,7.75
2022-11-22T20:32:11.990Z,7.83
2022-11-22T20:35:37.238Z,7.87
2022-11-22T20:39:06.923Z,7.85
2022-11-22T20:42:35.336Z,7.82
2022-11-22T20:45:52.996Z,7.87
2022-11-22T20:49:18.216Z,7.9
2022-11-22T20:52:43.466Z,7.96
2022-11-22T20:56:08.695Z,8.05
2022-11-22T20:59:33.963Z,8.13
2022-11-22T21:02:59.245Z,8.16
2022-11-22T21:06:24.473Z,8.16
2022-11-22T21:09:49.731Z,8.14
2022-11-22T21:13:14.965Z,8.17
2022-11-22T21:16:40.178Z,8.24
2022-11-22T21:20:05.498Z,8.29
2022-11-22T21:23:30.630Z,8.31
2022-11-22T21:26:55.832Z,8.32
2022-11-22T21:30:21.077Z,8.31
2022-11-22T21:33:46.282Z,8.31
2022-11-22T21:37:12.585Z,8.32
2022-11-22T21:40:37.730Z,8.33
2022-11-22T21:44:02.959Z,8.37
2022-11-22T21:47:28.208Z,8.42
2022-11-22T21:50:53.474Z,8.42
2022-11-22T21:54:18.810Z,8.43
2022-11-22T21:57:43.886Z,8.42
2022-11-22T22:01:13.768Z,8.35
2022-11-22T22:04:34.291Z,8.27
2022-11-22T22:07:59.520Z,8.16
2022-11-22T22:11:24.814Z,8.06
2022-11-22T22:14:49.881Z,8.05
2022-11-22T22:18:15.078Z,8.07
2022-11-22T22:21:40.288Z,8.13
2022-11-22T22:25:05.502Z,8.18
2022-11-22T22:28:30.884Z,8.25
2022-11-22T22:31:55.958Z,8.28
2022-11-22T22:35:21.201Z,8.34
2022-11-22T22:38:46.408Z,8.34
2022-11-22T22:42:11.602Z,8.32
2022-11-22T22:45:36.940Z,8.28
2022-11-22T22:49:02.014Z,8.21
2022-11-22T22:52:27.225Z,8.2
2022-11-22T22:55:52.425Z,8.2
2022-11-22T22:59:17.641Z,8.16
2022-11-22T23:02:43.029Z,8.18
2022-11-22T23:06:08.079Z,8.23
2022-11-22T23:09:33.552Z,8.22
2022-11-22T23:12:58.503Z,8.22
2022-11-22T23:16:23.698Z,8.18
2022-11-22T23:19:49.042Z,8.14
2022-11-22T23:23:14.113Z,8.12
2022-11-22T23:26:39.327Z,8.16
2022-11-22T23:30:04.512Z,8.24
2022-11-22T23:33:29.717Z,8.23
2022-11-22T23:36:55.044Z,8.26
2022-11-22T23:40:20.169Z,8.26
2022-11-22T23:43:45.373Z,8.22
2022-11-22T23:47:10.563Z,8.22
2022-11-22T23:50:37.401Z,8.21
2022-11-22T23:54:01.094Z,8.21
2022-11-22T23:57:26.166Z,8.22
